Time;durP1;ratioP1;P1;durP2;ratioP2;P2;SDS_P1;SDS_P2;PMS_P1;PMS_P2;Temp;Humidity;BMP_temperature;BMP_pressure;BME280_temperature;BME280_humidity;BME280_pressure;Samples;Min_cycle;Max_cycle;Signal;HPM_P1;HPM_P2
2022/07/22 00:03:43;;;;;;;6.78;3.78;;;;;;;;;;10404976;28;20494;-61
2022/07/22 00:08:43;;;;;;;5.85;3.53;;;;;;;;;;10407280;28;20477;-60
2022/07/22 00:13:45;;;;;;;4.75;3.45;;;;;;;;;;10391594;28;20026;-60
2022/07/22 00:18:45;;;;;;;9.35;3.47;;;;;;;;;;10399292;28;20039;-61
2022/07/22 00:23:46;;;;;;;5.85;3.90;;;;;;;;;;10403125;28;20378;-60
2022/07/22 00:28:47;;;;;;;7.38;3.92;;;;;;;;;;10396120;28;20030;-60
2022/07/22 00:33:47;;;;;;;6.75;3.40;;;;;;;;;;10393485;28;20037;-61
2022/07/22 00:38:48;;;;;;;5.97;3.70;;;;;;;;;;10396494;28;20276;-61
2022/07/22 00:43:55;;;;;;;7.63;3.72;;;;;;;;;;10400900;28;20034;-61
2022/07/22 00:48:56;;;;;;;6.93;3.40;;;;;;;;;;10400441;28;20029;-61
2022/07/22 00:53:57;;;;;;;4.75;3.13;;;;;;;;;;10401178;28;20030;-60
2022/07/22 00:59:03;;;;;;;5.45;3.22;;;;;;;;;;10397487;28;20473;-61
2022/07/22 01:04:04;;;;;;;3.88;3.03;;;;;;;;;;10404160;28;20389;-61
2022/07/22 01:09:04;;;;;;;5.05;3.50;;;;;;;;;;10402504;28;20017;-60
2022/07/22 01:14:05;;;;;;;5.47;3.53;;;;;;;;;;10400294;28;20488;-59
2022/07/22 01:19:06;;;;;;;4.90;3.17;;;;;;;;;;10393311;28;20032;-60
2022/07/22 01:24:06;;;;;;;5.43;3.33;;;;;;;;;;10405753;28;20037;-60
2022/07/22 01:29:08;;;;;;;4.32;3.20;;;;;;;;;;10401810;28;20025;-60
2022/07/22 01:34:08;;;;;;;4.38;3.42;;;;;;;;;;10406159;28;20473;-60
2022/07/22 01:39:09;;;;;;;6.38;3.40;;;;;;;;;;10406525;28;20026;-59
2022/07/22 01:44:10;;;;;;;3.50;2.92;;;;;;;;;;10406842;28;20250;-60
2022/07/22 01:49:10;;;;;;;5.97;3.15;;;;;;;;;;10405135;28;20124;-60
2022/07/22 01:54:11;;;;;;;3.83;2.95;;;;;;;;;;10401513;28;20044;-60
2022/07/22 01:59:11;;;;;;;3.17;2.88;;;;;;;;;;10404025;28;20033;-60
2022/07/22 02:04:12;;;;;;;3.60;3.10;;;;;;;;;;10399366;28;20036;-60
2022/07/22 02:09:13;;;;;;;3.88;3.00;;;;;;;;;;10405699;28;20065;-60
2022/07/22 02:14:14;;;;;;;4.45;2.92;;;;;;;;;;10412313;28;20036;-60
2022/07/22 02:19:15;;;;;;;17.67;3.42;;;;;;;;;;10402212;28;20025;-60
2022/07/22 02:24:15;;;;;;;6.15;2.95;;;;;;;;;;10408931;28;20052;-61
2022/07/22 02:29:16;;;;;;;4.60;2.95;;;;;;;;;;10408999;28;20029;-61
2022/07/22 02:34:16;;;;;;;8.20;3.10;;;;;;;;;;10394515;28;20192;-61
2022/07/22 02:39:17;;;;;;;5.30;2.83;;;;;;;;;;10411962;28;20048;-63
2022/07/22 02:44:18;;;;;;;6.15;2.90;;;;;;;;;;10412000;28;20025;-63
2022/07/22 02:49:19;;;;;;;3.72;2.78;;;;;;;;;;10408070;28;20029;-62
2022/07/22 02:54:19;;;;;;;3.85;2.78;;;;;;;;;;10411800;28;20026;-61
2022/07/22 02:59:20;;;;;;;5.25;3.33;;;;;;;;;;10406779;28;20036;-61
2022/07/22 03:04:41;;;;;;;6.40;2.45;;;;;;;;;;10406838;28;20272;-64
2022/07/22 03:09:41;;;;;;;5.97;2.90;;;;;;;;;;10284084;28;20524;-63
2022/07/22 03:14:42;;;;;;;3.17;2.65;;;;;;;;;;10289290;28;20054;-63
2022/07/22 03:19:42;;;;;;;4.55;2.92;;;;;;;;;;10289130;28;20054;-62
2022/07/22 03:24:43;;;;;;;7.18;2.70;;;;;;;;;;10279622;28;20049;-56
2022/07/22 03:29:44;;;;;;;5.22;2.70;;;;;;;;;;10285350;28;20026;-53
2022/07/22 03:34:44;;;;;;;4.05;2.72;;;;;;;;;;10283502;28;20058;-53
2022/07/22 03:39:45;;;;;;;4.22;2.45;;;;;;;;;;10287630;28;20558;-54
2022/07/22 03:44:46;;;;;;;3.83;2.85;;;;;;;;;;10344126;28;20045;-51
2022/07/22 03:49:47;;;;;;;3.47;2.80;;;;;;;;;;10409531;28;20021;-58
2022/07/22 03:54:47;;;;;;;7.05;2.53;;;;;;;;;;10389646;28;20461;-58
2022/07/22 03:59:48;;;;;;;4.93;2.75;;;;;;;;;;10408571;28;20036;-56
2022/07/22 04:04:49;;;;;;;5.20;2.90;;;;;;;;;;10408592;28;20029;-55
2022/07/22 04:09:49;;;;;;;4.43;2.58;;;;;;;;;;10407553;28;20436;-56
2022/07/22 04:14:50;;;;;;;3.13;2.55;;;;;;;;;;10393758;28;20025;-58
2022/07/22 04:19:50;;;;;;;3.80;2.75;;;;;;;;;;10394926;28;20029;-58
2022/07/22 04:24:51;;;;;;;9.95;2.75;;;;;;;;;;10407701;28;20573;-59
2022/07/22 04:29:51;;;;;;;4.43;2.75;;;;;;;;;;10405225;28;20029;-58
2022/07/22 04:34:52;;;;;;;2.70;2.50;;;;;;;;;;10407418;28;20064;-58
2022/07/22 04:39:53;;;;;;;2.35;2.15;;;;;;;;;;10405129;28;20477;-54
2022/07/22 04:44:53;;;;;;;2.65;2.33;;;;;;;;;;10402529;28;20080;-54
2022/07/22 04:49:54;;;;;;;3.45;2.45;;;;;;;;;;10404703;28;20402;-55
2022/07/22 04:54:54;;;;;;;3.38;2.50;;;;;;;;;;10407048;28;20095;-54
2022/07/22 04:59:55;;;;;;;4.68;2.38;;;;;;;;;;10406707;28;20161;-50
2022/07/22 05:04:55;;;;;;;4.30;2.40;;;;;;;;;;10406670;28;20480;-53
2022/07/22 05:09:56;;;;;;;5.35;2.65;;;;;;;;;;10406680;28;20477;-51
2022/07/22 05:14:57;;;;;;;4.10;2.28;;;;;;;;;;10404359;28;20032;-53
2022/07/22 05:19:57;;;;;;;3.65;2.55;;;;;;;;;;10399776;28;20025;-49
2022/07/22 05:24:58;;;;;;;3.45;2.50;;;;;;;;;;10431580;22;20111;-48
2022/07/22 05:29:59;;;;;;;9.60;2.63;;;;;;;;;;10440090;28;20032;-61
2022/07/22 05:34:59;;;;;;;13.52;4.97;;;;;;;;;;10440838;28;20067;-64
2022/07/22 05:40:00;;;;;;;17.48;4.97;;;;;;;;;;10439468;28;20094;-65
2022/07/22 05:45:00;;;;;;;19.15;5.88;;;;;;;;;;10433083;28;20026;-65
2022/07/22 05:50:01;;;;;;;15.18;5.20;;;;;;;;;;10441996;28;20021;-65
2022/07/22 05:55:03;;;;;;;11.32;5.22;;;;;;;;;;10432031;28;20112;-59
2022/07/22 06:00:05;;;;;;;15.60;5.40;;;;;;;;;;10439864;28;20021;-46
2022/07/22 06:05:06;;;;;;;23.80;4.95;;;;;;;;;;10440939;28;20410;-46
2022/07/22 06:10:07;;;;;;;18.50;4.32;;;;;;;;;;10434025;28;20057;-47
2022/07/22 06:15:08;;;;;;;28.52;6.00;;;;;;;;;;10442959;28;20033;-45
2022/07/22 06:20:09;;;;;;;38.72;5.82;;;;;;;;;;10435080;28;20040;-46
2022/07/22 06:25:10;;;;;;;17.42;5.88;;;;;;;;;;10435523;28;20057;-46
2022/07/22 06:30:11;;;;;;;23.20;5.97;;;;;;;;;;10445034;28;20029;-45
2022/07/22 06:35:12;;;;;;;14.75;5.60;;;;;;;;;;10437160;28;20029;-54
2022/07/22 06:40:13;;;;;;;14.95;5.00;;;;;;;;;;10424158;28;20489;-46
2022/07/22 06:45:13;;;;;;;12.93;4.88;;;;;;;;;;10445676;28;20353;-46
2022/07/22 06:50:14;;;;;;;9.65;4.43;;;;;;;;;;10441793;28;20389;-45
2022/07/22 06:55:15;;;;;;;10.77;4.57;;;;;;;;;;10433032;28;21061;-45
2022/07/22 07:00:16;;;;;;;8.40;4.68;;;;;;;;;;10427587;28;20037;-46
2022/07/22 07:05:17;;;;;;;11.15;4.15;;;;;;;;;;10422777;28;20044;-47
2022/07/22 07:10:17;;;;;;;9.95;5.47;;;;;;;;;;10425852;28;20020;-46
2022/07/22 07:15:18;;;;;;;9.68;5.75;;;;;;;;;;10434156;28;20045;-45
2022/07/22 07:20:18;;;;;;;9.27;5.03;;;;;;;;;;10446632;28;20400;-45
2022/07/22 07:25:19;;;;;;;8.57;4.95;;;;;;;;;;10434594;28;20068;-45
2022/07/22 07:30:21;;;;;;;15.50;5.18;;;;;;;;;;10436161;28;20033;-49
2022/07/22 07:35:22;;;;;;;9.23;5.32;;;;;;;;;;10446407;28;20060;-46
2022/07/22 07:40:22;;;;;;;11.90;5.40;;;;;;;;;;10432223;28;20045;-45
2022/07/22 07:45:23;;;;;;;13.93;5.05;;;;;;;;;;10421387;28;20480;-47
2022/07/22 07:50:24;;;;;;;11.88;4.88;;;;;;;;;;10430880;28;20374;-45
2022/07/22 07:55:25;;;;;;;14.77;5.50;;;;;;;;;;10430490;28;20096;-45
2022/07/22 08:00:28;;;;;;;10.30;5.13;;;;;;;;;;10423281;28;20164;-47
2022/07/22 08:05:29;;;;;;;12.80;5.32;;;;;;;;;;10428119;28;20040;-49
2022/07/22 08:10:30;;;;;;;10.57;5.15;;;;;;;;;;10437620;28;20041;-50
2022/07/22 08:15:32;;;;;;;21.00;5.75;;;;;;;;;;10434621;28;20477;-50
2022/07/22 08:20:32;;;;;;;10.85;5.35;;;;;;;;;;10436314;28;20382;-46
2022/07/22 08:25:33;;;;;;;9.93;5.60;;;;;;;;;;10435538;28;20038;-49
2022/07/22 08:30:34;;;;;;;11.07;5.57;;;;;;;;;;10432990;28;20025;-48
2022/07/22 08:35:35;;;;;;;14.60;5.22;;;;;;;;;;10441092;28;20036;-50
2022/07/22 08:40:36;;;;;;;13.27;4.88;;;;;;;;;;10441875;28;20038;-50
2022/07/22 08:45:36;;;;;;;15.30;5.38;;;;;;;;;;10411496;28;20036;-49
2022/07/22 08:50:37;;;;;;;15.40;5.70;;;;;;;;;;10431609;28;20469;-45
2022/07/22 08:55:43;;;;;;;21.98;5.72;;;;;;;;;;10431929;28;20041;-45
2022/07/22 09:00:44;;;;;;;18.33;5.88;;;;;;;;;;10421068;28;20018;-46
2022/07/22 09:05:45;;;;;;;11.80;4.93;;;;;;;;;;10431831;28;20025;-49
2022/07/22 09:10:46;;;;;;;12.77;5.18;;;;;;;;;;10418123;28;20030;-46
2022/07/22 09:15:50;;;;;;;9.75;4.75;;;;;;;;;;10419851;28;20037;-48
2022/07/22 09:20:58;;;;;;;17.58;4.82;;;;;;;;;;10441316;28;20033;-45
2022/07/22 09:25:59;;;;;;;14.38;4.68;;;;;;;;;;10438339;28;20045;-49
2022/07/22 09:31:00;;;;;;;19.20;4.93;;;;;;;;;;10424046;28;20029;-45
2022/07/22 09:36:04;;;;;;;12.13;4.47;;;;;;;;;;10423574;28;20321;-45
2022/07/22 09:41:04;;;;;;;10.15;4.38;;;;;;;;;;10428102;28;20026;-45
2022/07/22 09:46:05;;;;;;;17.92;4.55;;;;;;;;;;10404368;28;20033;-46
2022/07/22 09:51:06;;;;;;;13.68;4.47;;;;;;;;;;10438668;28;20086;-45
2022/07/22 09:56:07;;;;;;;8.80;4.35;;;;;;;;;;10445700;28;20396;-46
2022/07/22 10:01:08;;;;;;;7.15;3.92;;;;;;;;;;10442463;28;20064;-53
2022/07/22 10:06:10;;;;;;;9.52;3.90;;;;;;;;;;10425565;28;20029;-53
2022/07/22 10:11:10;;;;;;;9.40;3.65;;;;;;;;;;10450580;28;20029;-45
2022/07/22 10:16:12;;;;;;;6.68;3.40;;;;;;;;;;10456987;28;20039;-45
2022/07/22 10:21:14;;;;;;;8.90;3.55;;;;;;;;;;10430009;28;20067;-46
2022/07/22 10:26:14;;;;;;;5.97;3.13;;;;;;;;;;10440080;28;20141;-46
2022/07/22 10:31:24;;;;;;;8.02;3.83;;;;;;;;;;10438026;28;20040;-46
2022/07/22 10:36:37;;;;;;;8.57;3.72;;;;;;;;;;10439298;28;20345;-45
2022/07/22 10:41:39;;;;;;;13.82;4.05;;;;;;;;;;10438610;28;20065;-45
2022/07/22 10:46:54;;;;;;;7.07;3.85;;;;;;;;;;10424361;28;20068;-45
2022/07/22 10:52:21;;;;;;;6.03;4.07;;;;;;;;;;10438445;28;20088;-64
2022/07/22 10:57:32;;;;;;;14.95;4.47;;;;;;;;;;10443173;28;20481;-63
2022/07/22 11:02:36;;;;;;;8.88;4.10;;;;;;;;;;10443051;28;20059;-62
2022/07/22 11:07:44;;;;;;;7.47;4.72;;;;;;;;;;10441042;28;20115;-66
2022/07/22 11:12:48;;;;;;;8.23;4.57;;;;;;;;;;10443291;28;20048;-64
2022/07/22 11:17:48;;;;;;;8.55;4.75;;;;;;;;;;10429971;28;20033;-65
2022/07/22 11:22:49;;;;;;;7.15;4.93;;;;;;;;;;10421342;28;20623;-65
2022/07/22 11:27:52;;;;;;;7.03;5.00;;;;;;;;;;10418895;28;20382;-65
2022/07/22 11:32:53;;;;;;;9.50;4.85;;;;;;;;;;10432001;28;20018;-65
2022/07/22 11:37:57;;;;;;;7.88;4.78;;;;;;;;;;10412062;28;20043;-65
2022/07/22 11:43:02;;;;;;;5.00;4.50;;;;;;;;;;10439806;28;20091;-64
2022/07/22 11:48:09;;;;;;;7.07;4.75;;;;;;;;;;10435035;28;20485;-65
2022/07/22 11:53:11;;;;;;;6.47;5.13;;;;;;;;;;10433946;28;20032;-58
2022/07/22 11:58:11;;;;;;;10.68;4.50;;;;;;;;;;10438906;28;20108;-57
2022/07/22 12:03:12;;;;;;;5.13;4.53;;;;;;;;;;10433828;28;20036;-59
2022/07/22 12:08:12;;;;;;;10.30;4.43;;;;;;;;;;10409118;28;20036;-54
2022/07/22 12:13:13;;;;;;;6.30;4.88;;;;;;;;;;10428874;28;20472;-57
2022/07/22 12:18:23;;;;;;;7.63;4.80;;;;;;;;;;10443188;28;20113;-54
2022/07/22 12:23:26;;;;;;;10.05;4.57;;;;;;;;;;10437020;28;20386;-59
2022/07/22 12:28:27;;;;;;;5.57;4.65;;;;;;;;;;10443063;28;20021;-57
2022/07/22 12:33:28;;;;;;;7.75;4.43;;;;;;;;;;10443815;28;20103;-59
2022/07/22 12:38:29;;;;;;;9.30;4.45;;;;;;;;;;10447491;28;20025;-59
2022/07/22 12:43:29;;;;;;;7.55;4.93;;;;;;;;;;10438604;28;20033;-50
2022/07/22 12:48:30;;;;;;;13.10;4.38;;;;;;;;;;10438377;28;20415;-49
2022/07/22 12:53:33;;;;;;;6.38;4.50;;;;;;;;;;10440158;28;20036;-47
2022/07/22 12:58:36;;;;;;;13.98;4.30;;;;;;;;;;10435253;28;20021;-48
2022/07/22 13:03:36;;;;;;;9.27;4.55;;;;;;;;;;10446360;28;20075;-47
2022/07/22 13:08:37;;;;;;;10.15;4.43;;;;;;;;;;10438458;28;20037;-48
2022/07/22 13:13:38;;;;;;;11.25;4.50;;;;;;;;;;10439708;28;20496;-47
2022/07/22 13:18:38;;;;;;;10.13;4.90;;;;;;;;;;10430735;28;20174;-48
2022/07/22 13:23:39;;;;;;;9.07;4.00;;;;;;;;;;10433579;28;20045;-47
2022/07/22 13:28:39;;;;;;;7.53;4.18;;;;;;;;;;10441146;28;20461;-47
2022/07/22 13:33:40;;;;;;;10.70;4.40;;;;;;;;;;10433060;28;20116;-47
2022/07/22 13:38:40;;;;;;;10.40;4.85;;;;;;;;;;10438591;28;20021;-47
2022/07/22 13:43:41;;;;;;;7.75;4.63;;;;;;;;;;10444052;28;20028;-48
2022/07/22 13:48:42;;;;;;;11.27;4.05;;;;;;;;;;10439475;28;20147;-56
2022/07/22 13:53:43;;;;;;;8.30;4.00;;;;;;;;;;10439227;28;20040;-48
2022/07/22 13:58:43;;;;;;;6.72;4.00;;;;;;;;;;10446656;28;20444;-48
2022/07/22 14:03:44;;;;;;;5.53;3.90;;;;;;;;;;10429110;28;20368;-49
2022/07/22 14:08:44;;;;;;;8.10;4.88;;;;;;;;;;10450185;28;20025;-48
2022/07/22 14:13:45;;;;;;;7.63;3.90;;;;;;;;;;10450035;28;20025;-47
2022/07/22 14:18:46;;;;;;;6.03;3.85;;;;;;;;;;10449965;28;20028;-47
2022/07/22 14:23:46;;;;;;;6.13;3.80;;;;;;;;;;10441381;28;20045;-47
2022/07/22 14:28:47;;;;;;;5.65;3.60;;;;;;;;;;10439891;28;20026;-47
2022/07/22 14:33:48;;;;;;;9.35;4.10;;;;;;;;;;10449197;28;20025;-48
2022/07/22 14:38:53;;;;;;;4.78;3.60;;;;;;;;;;10448193;28;20075;-47
2022/07/22 14:43:53;;;;;;;7.35;4.22;;;;;;;;;;10448279;28;20115;-47
2022/07/22 14:48:54;;;;;;;4.40;3.58;;;;;;;;;;10450101;28;20113;-48
2022/07/22 14:53:55;;;;;;;5.50;3.72;;;;;;;;;;10447844;28;20108;-48
2022/07/22 14:58:55;;;;;;;5.03;3.60;;;;;;;;;;10452251;28;20024;-47
2022/07/22 15:03:56;;;;;;;4.50;3.80;;;;;;;;;;10451998;28;20025;-47
2022/07/22 15:08:56;;;;;;;4.70;3.40;;;;;;;;;;10426732;28;20071;-53
2022/07/22 15:13:57;;;;;;;4.25;3.58;;;;;;;;;;10415595;28;20349;-48
2022/07/22 15:18:57;;;;;;;4.55;3.40;;;;;;;;;;10423956;28;20029;-47
2022/07/22 15:23:58;;;;;;;4.60;3.40;;;;;;;;;;10419682;28;20046;-47
2022/07/22 15:28:59;;;;;;;4.80;3.47;;;;;;;;;;10426519;28;20037;-47
2022/07/22 15:34:00;;;;;;;3.78;3.38;;;;;;;;;;10449994;28;20029;-48
2022/07/22 15:39:00;;;;;;;5.15;3.10;;;;;;;;;;10431884;28;20424;-47
2022/07/22 15:44:03;;;;;;;4.45;3.53;;;;;;;;;;10433178;28;20040;-48
2022/07/22 15:49:04;;;;;;;6.18;3.78;;;;;;;;;;10448294;28;20032;-47
2022/07/22 15:54:04;;;;;;;6.30;3.50;;;;;;;;;;10447790;28;20025;-47
2022/07/22 16:04:25;;;;;;;4.88;3.50;;;;;;;;;;10435126;28;20072;-47
2022/07/22 16:09:25;;;;;;;6.50;3.20;;;;;;;;;;10418399;28;20029;-48
2022/07/22 16:14:26;;;;;;;12.32;4.00;;;;;;;;;;10418981;28;20033;-47
2022/07/22 16:19:27;;;;;;;12.10;3.50;;;;;;;;;;10443264;28;20461;-48
2022/07/22 16:24:28;;;;;;;4.07;3.42;;;;;;;;;;10429633;28;20048;-47
2022/07/22 16:29:29;;;;;;;8.38;4.07;;;;;;;;;;10429742;28;20051;-48
2022/07/22 16:34:30;;;;;;;9.85;3.95;;;;;;;;;;10442345;28;20362;-47
2022/07/22 16:39:32;;;;;;;6.15;3.65;;;;;;;;;;10442136;28;20032;-47
2022/07/22 16:44:33;;;;;;;5.47;3.50;;;;;;;;;;10419193;28;20091;-47
2022/07/22 16:49:34;;;;;;;5.18;3.53;;;;;;;;;;10429483;28;20056;-47
2022/07/22 16:54:35;;;;;;;4.32;3.28;;;;;;;;;;10409978;28;20060;-47
2022/07/22 16:59:36;;;;;;;4.65;3.42;;;;;;;;;;10428216;28;20029;-47
2022/07/22 17:04:36;;;;;;;4.20;3.60;;;;;;;;;;10438412;28;20041;-47
2022/07/22 17:09:37;;;;;;;5.65;3.90;;;;;;;;;;10419723;28;20558;-47
2022/07/22 17:14:37;;;;;;;6.78;3.80;;;;;;;;;;10442068;28;20044;-47
2022/07/22 17:19:38;;;;;;;8.82;4.13;;;;;;;;;;10441027;28;20420;-47
2022/07/22 17:24:39;;;;;;;9.25;4.25;;;;;;;;;;10440624;28;20132;-47
2022/07/22 17:29:39;;;;;;;13.90;5.40;;;;;;;;;;10415307;28;20045;-47
2022/07/22 17:34:40;;;;;;;19.55;6.72;;;;;;;;;;10418023;28;20132;-47
2022/07/22 17:39:41;;;;;;;14.32;6.45;;;;;;;;;;10413181;28;20032;-47
2022/07/22 17:44:43;;;;;;;19.92;6.75;;;;;;;;;;10442303;28;20059;-47
2022/07/22 17:49:43;;;;;;;19.33;7.05;;;;;;;;;;10432102;28;20029;-57
2022/07/22 17:54:44;;;;;;;16.70;6.15;;;;;;;;;;10430788;28;20029;-47
2022/07/22 17:59:45;;;;;;;16.20;6.22;;;;;;;;;;10436585;28;20027;-47
2022/07/22 18:04:45;;;;;;;19.15;5.88;;;;;;;;;;10438761;28;20103;-43
2022/07/22 18:09:46;;;;;;;13.55;6.18;;;;;;;;;;10445776;28;20499;-45
2022/07/22 18:14:46;;;;;;;14.77;5.47;;;;;;;;;;10430084;28;20121;-45
2022/07/22 18:19:47;;;;;;;19.83;5.18;;;;;;;;;;10439841;28;20032;-45
2022/07/22 18:24:47;;;;;;;16.05;6.18;;;;;;;;;;10443434;28;20048;-46
2022/07/22 18:29:48;;;;;;;12.55;5.90;;;;;;;;;;10436777;28;20151;-45
2022/07/22 18:34:49;;;;;;;17.33;5.55;;;;;;;;;;10443707;28;20025;-45
2022/07/22 18:39:49;;;;;;;13.15;5.40;;;;;;;;;;10441098;28;20071;-46
2022/07/22 18:44:50;;;;;;;10.75;5.28;;;;;;;;;;10449486;28;20060;-45
2022/07/22 18:49:51;;;;;;;13.85;5.82;;;;;;;;;;10439367;28;20060;-45
2022/07/22 18:54:51;;;;;;;11.20;5.05;;;;;;;;;;10442986;28;20028;-45
2022/07/22 18:59:52;;;;;;;10.02;5.65;;;;;;;;;;10445404;28;20039;-45
2022/07/22 19:04:52;;;;;;;8.05;5.25;;;;;;;;;;10447418;28;20477;-45
2022/07/22 19:09:53;;;;;;;9.35;5.20;;;;;;;;;;10447625;28;20504;-45
2022/07/22 19:14:54;;;;;;;8.95;5.18;;;;;;;;;;10445895;28;20377;-46
2022/07/22 19:19:54;;;;;;;7.13;5.00;;;;;;;;;;10441894;28;20183;-45
2022/07/22 19:24:55;;;;;;;9.05;4.88;;;;;;;;;;10448341;28;20036;-47
2022/07/22 19:29:55;;;;;;;9.68;4.75;;;;;;;;;;10446976;28;20070;-45
2022/07/22 19:34:56;;;;;;;8.10;5.45;;;;;;;;;;10448668;28;20029;-46
2022/07/22 19:39:57;;;;;;;7.57;4.85;;;;;;;;;;10445839;28;20025;-46
2022/07/22 19:44:57;;;;;;;9.07;5.32;;;;;;;;;;10446995;28;20017;-50
2022/07/22 19:49:58;;;;;;;8.30;5.35;;;;;;;;;;10447078;28;20476;-49
2022/07/22 19:54:58;;;;;;;8.15;5.22;;;;;;;;;;10445458;28;20396;-46
2022/07/22 19:59:59;;;;;;;13.07;4.95;;;;;;;;;;10419594;28;20036;-47
2022/07/22 20:05:00;;;;;;;6.55;4.47;;;;;;;;;;10417200;28;20025;-44
2022/07/22 20:10:01;;;;;;;7.53;4.57;;;;;;;;;;10414661;28;20037;-45
2022/07/22 20:15:03;;;;;;;10.65;5.72;;;;;;;;;;10413707;28;20056;-49
2022/07/22 20:20:04;;;;;;;7.78;5.07;;;;;;;;;;10414247;28;20021;-48
2022/07/22 20:25:05;;;;;;;7.35;4.75;;;;;;;;;;10417679;28;20056;-47
2022/07/22 20:30:07;;;;;;;6.35;4.90;;;;;;;;;;10415737;28;20351;-46
2022/07/22 20:35:08;;;;;;;10.82;4.75;;;;;;;;;;10411075;28;20424;-53
2022/07/22 20:40:09;;;;;;;7.18;4.93;;;;;;;;;;10434750;28;20075;-46
2022/07/22 20:45:10;;;;;;;8.93;5.70;;;;;;;;;;10439391;28;20369;-44
2022/07/22 20:50:11;;;;;;;8.57;5.20;;;;;;;;;;10431330;28;20287;-43
2022/07/22 20:55:12;;;;;;;6.45;5.22;;;;;;;;;;10428492;28;20040;-45
2022/07/22 21:00:13;;;;;;;11.27;5.60;;;;;;;;;;10414987;28;20384;-46
2022/07/22 21:05:13;;;;;;;5.93;4.72;;;;;;;;;;10413069;28;20024;-48
2022/07/22 21:10:14;;;;;;;13.00;5.70;;;;;;;;;;10412989;28;20070;-47
2022/07/22 21:15:15;;;;;;;11.65;4.80;;;;;;;;;;10442499;28;20050;-49
2022/07/22 21:20:15;;;;;;;10.32;5.72;;;;;;;;;;10460383;28;20464;-46
2022/07/22 21:25:17;;;;;;;8.65;4.97;;;;;;;;;;10455480;28;20238;-46
2022/07/22 21:30:17;;;;;;;6.50;4.32;;;;;;;;;;10455009;28;20245;-47
2022/07/22 21:35:18;;;;;;;8.55;4.60;;;;;;;;;;10457736;28;20615;-46
2022/07/22 21:40:19;;;;;;;6.85;4.88;;;;;;;;;;10459333;28;20025;-45
2022/07/22 21:45:20;;;;;;;6.55;5.10;;;;;;;;;;10457314;28;20028;-46
2022/07/22 21:50:20;;;;;;;10.13;5.28;;;;;;;;;;10455523;28;20032;-45
2022/07/22 21:55:22;;;;;;;6.90;4.40;;;;;;;;;;10451559;28;21127;-45
2022/07/22 22:00:23;;;;;;;8.40;5.20;;;;;;;;;;10443658;28;20029;-45
2022/07/22 22:05:24;;;;;;;5.93;4.63;;;;;;;;;;10445049;28;20021;-45
2022/07/22 22:10:24;;;;;;;11.88;4.90;;;;;;;;;;10442729;28;20036;-47
2022/07/22 22:15:25;;;;;;;6.50;4.85;;;;;;;;;;10455535;28;20427;-47
2022/07/22 22:20:25;;;;;;;6.85;4.30;;;;;;;;;;10443161;28;20048;-47
2022/07/22 22:25:26;;;;;;;8.27;4.78;;;;;;;;;;10447846;28;20067;-48
2022/07/22 22:30:27;;;;;;;5.15;4.45;;;;;;;;;;10450640;28;20028;-53
2022/07/22 22:35:28;;;;;;;8.57;4.72;;;;;;;;;;10447086;28;20489;-49
2022/07/22 22:40:29;;;;;;;7.35;4.55;;;;;;;;;;10451016;28;20037;-49
2022/07/22 22:45:30;;;;;;;6.03;4.38;;;;;;;;;;10448985;28;20417;-47
2022/07/22 22:50:30;;;;;;;4.53;3.85;;;;;;;;;;10452951;28;20072;-46
2022/07/22 22:55:31;;;;;;;5.50;4.50;;;;;;;;;;10449042;28;20040;-45
2022/07/22 23:00:31;;;;;;;7.45;4.53;;;;;;;;;;10446408;28;20550;-47
2022/07/22 23:05:32;;;;;;;6.28;4.20;;;;;;;;;;10445127;28;20051;-46
2022/07/22 23:10:33;;;;;;;9.23;4.78;;;;;;;;;;10448570;28;20029;-46
2022/07/22 23:15:33;;;;;;;7.82;4.50;;;;;;;;;;10447828;28;20047;-45
2022/07/22 23:20:49;;;;;;;5.70;4.25;;;;;;;;;;10445010;28;20076;-45
2022/07/22 23:25:51;;;;;;;4.82;4.07;;;;;;;;;;10449245;28;20127;-45
2022/07/22 23:30:52;;;;;;;6.05;4.57;;;;;;;;;;10446891;28;20549;-45
2022/07/22 23:35:53;;;;;;;8.25;4.63;;;;;;;;;;10446971;28;20029;-45
2022/07/22 23:40:53;;;;;;;5.88;4.15;;;;;;;;;;10448837;28;20103;-45
2022/07/22 23:45:54;;;;;;;5.63;3.97;;;;;;;;;;10445702;28;20420;-46
2022/07/22 23:50:55;;;;;;;7.90;4.45;;;;;;;;;;10429423;28;20037;-48
2022/07/22 23:55:55;;;;;;;7.18;4.10;;;;;;;;;;10445060;28;20032;-46
